createdAt,value
2023-02-24T00:02:01.024Z,12.32
2023-02-24T00:04:30.156Z,12.50
2023-02-24T00:06:56.690Z,12.65
2023-02-24T00:09:26.137Z,16.45
2023-02-24T00:11:57.106Z,17.25
2023-02-24T00:14:26.710Z,16.33
2023-02-24T00:16:53.433Z,9.70
2023-02-24T00:19:23.518Z,11.98
2023-02-24T00:21:51.480Z,13.95
2023-02-24T00:24:18.010Z,13.55
2023-02-24T00:26:45.725Z,12.43
2023-02-24T00:29:13.495Z,13.10
2023-02-24T00:31:42.842Z,14.18
2023-02-24T00:34:12.623Z,14.68
2023-02-24T00:36:39.425Z,21.05
2023-02-24T00:39:11.460Z,15.02
2023-02-24T00:41:41.747Z,15.70
2023-02-24T00:44:13.412Z,14.68
2023-02-24T00:46:44.618Z,12.35
2023-02-24T00:49:19.598Z,14.85
2023-02-24T00:51:48.814Z,16.65
2023-02-24T00:54:16.875Z,12.38
2023-02-24T00:56:45.238Z,19.30
2023-02-24T00:59:13.051Z,12.75
2023-02-24T01:01:40.286Z,13.45
2023-02-24T01:04:11.469Z,16.23
2023-02-24T01:06:47.570Z,15.15
2023-02-24T01:09:20.342Z,13.35
2023-02-24T01:12:07.479Z,16.48
2023-02-24T01:14:35.922Z,12.07
2023-02-24T01:17:03.754Z,16.75
2023-02-24T01:19:32.290Z,15.30
2023-02-24T01:22:07.328Z,17.00
2023-02-24T01:24:37.950Z,11.93
2023-02-24T01:27:06.779Z,12.95
2023-02-24T01:29:39.629Z,12.98
2023-02-24T01:32:13.023Z,16.58
2023-02-24T01:34:42.412Z,17.37
2023-02-24T01:37:09.670Z,18.48
2023-02-24T01:39:36.330Z,13.10
2023-02-24T01:42:04.898Z,16.02
2023-02-24T01:44:32.655Z,12.50
2023-02-24T01:47:03.861Z,13.40
2023-02-24T01:49:38.455Z,14.02
2023-02-24T01:52:19.643Z,12.43
2023-02-24T01:54:48.716Z,16.23
2023-02-24T01:57:20.955Z,14.57
2023-02-24T01:59:50.950Z,14.13
2023-02-24T02:02:19.261Z,13.15
2023-02-24T02:05:01.856Z,10.48
2023-02-24T02:07:29.730Z,13.15
2023-02-24T02:10:00.315Z,16.83
2023-02-24T02:12:28.338Z,14.73
2023-02-24T02:14:58.202Z,16.00
2023-02-24T02:17:40.874Z,11.30
2023-02-24T02:20:16.602Z,13.82
2023-02-24T02:23:16.965Z,13.00
2023-02-24T02:26:24.791Z,10.55
2023-02-24T02:29:19.770Z,13.80
2023-02-24T02:32:08.876Z,14.10
2023-02-24T02:34:57.447Z,12.15
2023-02-24T02:37:34.218Z,11.63
2023-02-24T02:40:19.947Z,12.98
2023-02-24T02:43:14.098Z,15.15
2023-02-24T02:45:48.090Z,12.23
2023-02-24T02:48:20.231Z,11.77
2023-02-24T02:50:54.806Z,8.82
2023-02-24T02:53:59.237Z,12.23
2023-02-24T02:56:31.947Z,11.57
2023-02-24T02:59:00.594Z,13.30
2023-02-24T03:01:35.766Z,13.52
2023-02-24T03:04:06.375Z,12.85
2023-02-24T03:06:47.481Z,13.20
2023-02-24T03:09:20.865Z,15.43
2023-02-24T03:11:53.732Z,14.20
2023-02-24T03:14:24.574Z,14.95
2023-02-24T03:16:53.901Z,10.50
2023-02-24T03:19:28.201Z,12.88
2023-02-24T03:22:06.073Z,8.23
2023-02-24T03:24:32.652Z,12.60
2023-02-24T03:27:13.057Z,8.43
2023-02-24T03:29:49.723Z,7.72
2023-02-24T03:32:36.577Z,11.93
2023-02-24T03:35:16.897Z,10.70
2023-02-24T03:37:47.060Z,11.88
2023-02-24T03:40:14.881Z,11.35
2023-02-24T03:42:48.335Z,8.90
2023-02-24T03:45:16.415Z,10.40
2023-02-24T03:47:45.491Z,12.85
2023-02-24T03:50:15.240Z,7.38
2023-02-24T03:53:09.787Z,7.35
2023-02-24T03:55:42.619Z,14.68
2023-02-24T03:58:36.429Z,9.48
2023-02-24T04:01:25.374Z,9.98
2023-02-24T04:04:18.117Z,9.13
2023-02-24T04:09:57.096Z,10.30
2023-02-24T04:12:32.199Z,10.48
2023-02-24T04:15:15.289Z,6.95
2023-02-24T04:17:53.796Z,9.02
2023-02-24T04:20:24.706Z,7.57
2023-02-24T04:23:01.942Z,6.10
2023-02-24T04:25:31.004Z,8.60
2023-02-24T04:28:01.141Z,9.27
2023-02-24T04:30:33.239Z,12.90
2023-02-24T04:32:59.976Z,12.90
2023-02-24T04:35:27.802Z,7.70
2023-02-24T04:37:56.366Z,8.05
2023-02-24T04:40:24.110Z,13.85
2023-02-24T04:42:52.358Z,11.23
2023-02-24T04:45:24.484Z,8.50
2023-02-24T04:47:56.052Z,8.52
2023-02-24T04:50:25.160Z,12.32
2023-02-24T04:52:57.339Z,8.60
2023-02-24T04:55:26.471Z,10.35
2023-02-24T04:57:53.166Z,6.10
2023-02-24T05:00:23.191Z,7.95
2023-02-24T05:02:50.599Z,10.50
2023-02-24T05:05:28.329Z,9.80
2023-02-24T05:08:03.365Z,16.27
2023-02-24T05:10:38.953Z,9.57
2023-02-24T05:13:09.390Z,16.92
2023-02-24T05:15:40.571Z,8.70
2023-02-24T05:18:09.334Z,8.77
2023-02-24T05:21:01.668Z,13.82
2023-02-24T05:23:31.837Z,7.45
2023-02-24T05:25:58.736Z,11.30
2023-02-24T05:28:25.878Z,12.02
2023-02-24T05:30:56.363Z,9.00
2023-02-24T05:33:22.874Z,9.40
2023-02-24T05:35:51.018Z,9.77
2023-02-24T05:38:19.709Z,11.38
2023-02-24T05:40:49.785Z,6.53
2023-02-24T05:43:19.128Z,9.90
2023-02-24T05:45:46.357Z,13.70
2023-02-24T05:48:16.842Z,15.10
2023-02-24T05:50:52.176Z,13.82
2023-02-24T05:53:19.085Z,9.45
2023-02-24T05:55:45.564Z,8.20
2023-02-24T05:58:12.167Z,7.40
2023-02-24T06:00:39.732Z,8.45
2023-02-24T06:03:09.344Z,11.32
2023-02-24T06:05:39.582Z,8.57
2023-02-24T06:08:06.250Z,7.05
2023-02-24T06:10:34.338Z,9.13
2023-02-24T06:13:02.250Z,6.40
2023-02-24T06:15:29.534Z,13.43
2023-02-24T06:17:56.615Z,8.95
2023-02-24T06:20:26.661Z,9.93
2023-02-24T06:22:55.771Z,7.47
2023-02-24T06:25:24.967Z,9.48
2023-02-24T06:27:54.573Z,6.75
2023-02-24T06:30:24.518Z,12.18
2023-02-24T06:32:51.816Z,8.65
2023-02-24T06:35:19.470Z,12.30
2023-02-24T06:37:46.582Z,11.18
2023-02-24T06:40:16.371Z,12.55
2023-02-24T06:42:57.013Z,12.88
2023-02-24T06:45:24.308Z,14.35
2023-02-24T06:47:50.776Z,11.60
2023-02-24T06:50:20.126Z,12.52
2023-02-24T06:52:50.237Z,8.85
2023-02-24T06:55:26.285Z,9.63
2023-02-24T06:57:58.344Z,9.85
2023-02-24T07:00:36.915Z,14.38
2023-02-24T07:03:14.715Z,9.32
2023-02-24T07:05:54.268Z,11.23
2023-02-24T07:08:23.009Z,13.68
2023-02-24T07:10:55.872Z,8.98
2023-02-24T07:13:24.728Z,12.18
2023-02-24T07:15:51.830Z,12.15
2023-02-24T07:18:19.372Z,10.35
2023-02-24T07:20:46.650Z,11.00
2023-02-24T07:23:15.036Z,9.88
2023-02-24T07:25:43.283Z,10.32
2023-02-24T07:28:10.953Z,9.73
2023-02-24T07:30:40.557Z,10.32
2023-02-24T07:33:08.240Z,13.45
2023-02-24T07:35:41.434Z,11.68
2023-02-24T07:38:08.112Z,10.05
2023-02-24T07:40:36.267Z,8.82
2023-02-24T07:43:06.319Z,8.27
2023-02-24T07:45:33.286Z,10.40
2023-02-24T07:48:01.674Z,10.93
2023-02-24T07:50:32.531Z,9.90
2023-02-24T07:52:59.599Z,7.18
2023-02-24T07:55:31.092Z,8.63
2023-02-24T07:57:57.893Z,13.50
2023-02-24T08:00:28.192Z,14.93
2023-02-24T08:02:56.629Z,10.73
2023-02-24T08:05:24.483Z,9.88
2023-02-24T08:07:52.016Z,12.70
2023-02-24T08:10:25.631Z,13.27
2023-02-24T08:12:55.676Z,10.40
2023-02-24T08:15:25.037Z,8.13
2023-02-24T08:17:53.651Z,11.65
2023-02-24T08:20:21.991Z,12.15
2023-02-24T08:22:53.985Z,11.60
2023-02-24T08:25:24.231Z,18.02
2023-02-24T08:28:08.954Z,13.57
2023-02-24T08:30:38.846Z,12.10
2023-02-24T08:33:08.136Z,13.10
2023-02-24T08:35:37.499Z,11.60
2023-02-24T08:38:16.792Z,7.50
2023-02-24T08:40:50.839Z,11.57
2023-02-24T08:46:00.831Z,10.90
2023-02-24T08:48:42.116Z,12.35
2023-02-24T08:51:14.946Z,11.85
2023-02-24T08:53:53.125Z,11.33
2023-02-24T08:56:24.541Z,7.63
2023-02-24T08:59:05.209Z,10.57
2023-02-24T09:01:35.194Z,10.57
2023-02-24T09:04:13.061Z,11.13
2023-02-24T09:06:51.242Z,11.45
2023-02-24T09:09:21.341Z,8.88
2023-02-24T09:11:57.040Z,9.10
2023-02-24T09:14:38.304Z,6.32
2023-02-24T09:17:10.887Z,8.32
2023-02-24T09:19:51.996Z,7.60
2023-02-24T09:22:32.419Z,7.63
2023-02-24T09:25:17.810Z,9.57
2023-02-24T09:27:52.694Z,8.15
2023-02-24T09:30:37.001Z,6.35
2023-02-24T09:36:20.436Z,7.25
2023-02-24T09:38:59.281Z,6.15
2023-02-24T09:42:02.549Z,6.75
2023-02-24T09:44:35.652Z,8.40
2023-02-24T09:47:15.963Z,5.83
2023-02-24T09:49:49.125Z,5.15
2023-02-24T09:52:18.880Z,5.75
2023-02-24T09:55:14.669Z,5.63
2023-02-24T09:58:09.366Z,4.68
2023-02-24T10:00:43.995Z,5.55
2023-02-24T10:03:41.382Z,4.47
2023-02-24T10:06:21.436Z,4.78
2023-02-24T10:08:54.419Z,4.18
2023-02-24T10:11:33.053Z,3.92
2023-02-24T10:14:06.231Z,4.57
2023-02-24T10:16:44.276Z,3.33
2023-02-24T10:19:23.499Z,4.30
2023-02-24T10:22:28.118Z,3.80
2023-02-24T10:25:10.885Z,4.05
2023-02-24T10:27:52.899Z,5.63
2023-02-24T10:30:40.727Z,3.25
2023-02-24T10:33:38.969Z,5.43
2023-02-24T10:36:11.186Z,3.10
2023-02-24T10:38:40.980Z,2.80
2023-02-24T10:41:10.245Z,3.40
2023-02-24T10:43:45.477Z,3.42
2023-02-24T10:46:40.952Z,2.80
2023-02-24T10:49:11.754Z,2.65
2023-02-24T10:51:41.960Z,3.92
2023-02-24T10:54:39.608Z,3.13
2023-02-24T10:57:15.257Z,3.13
2023-02-24T11:00:18.619Z,3.40
2023-02-24T11:03:06.889Z,5.40
2023-02-24T11:05:44.288Z,3.75
2023-02-24T11:08:36.384Z,3.17
2023-02-24T11:11:31.105Z,3.45
2023-02-24T11:17:07.145Z,4.40
2023-02-24T11:19:49.511Z,5.07
2023-02-24T11:22:27.771Z,3.80
2023-02-24T11:24:54.278Z,5.25
2023-02-24T11:27:23.294Z,6.22
2023-02-24T11:30:14.986Z,4.70
2023-02-24T11:32:58.481Z,4.90
2023-02-24T11:35:37.849Z,4.82
2023-02-24T11:38:27.642Z,5.85
2023-02-24T11:41:21.736Z,5.65
2023-02-24T11:44:16.770Z,3.60
2023-02-24T11:46:57.629Z,4.90
2023-02-24T11:49:41.234Z,5.15
2023-02-24T11:52:33.358Z,4.63
2023-02-24T11:55:03.668Z,5.30
2023-02-24T11:57:39.291Z,4.90
2023-02-24T12:00:20.077Z,5.55
2023-02-24T12:02:59.337Z,5.30
2023-02-24T12:05:34.879Z,5.05
2023-02-24T12:08:20.058Z,6.00
2023-02-24T12:10:52.393Z,5.53
2023-02-24T12:13:37.112Z,6.25
2023-02-24T12:16:10.908Z,5.60
2023-02-24T12:18:41.008Z,5.93
2023-02-24T12:21:17.899Z,5.88
2023-02-24T12:23:46.608Z,8.27
2023-02-24T12:26:42.568Z,7.88
2023-02-24T12:29:48.428Z,6.50
2023-02-24T12:32:41.329Z,9.20
2023-02-24T12:35:32.528Z,7.47
2023-02-24T12:38:36.555Z,8.32
2023-02-24T12:41:39.719Z,7.50
2023-02-24T12:44:22.690Z,8.35
2023-02-24T12:46:59.833Z,8.45
2023-02-24T12:49:58.802Z,9.30
2023-02-24T12:52:51.383Z,8.85
2023-02-24T12:55:39.588Z,8.70
2023-02-24T12:58:26.596Z,8.55
2023-02-24T13:01:21.571Z,8.02
2023-02-24T13:04:03.928Z,9.43
2023-02-24T13:06:31.218Z,9.88
2023-02-24T13:09:12.860Z,8.23
2023-02-24T13:12:03.079Z,9.32
2023-02-24T13:14:34.019Z,10.57
2023-02-24T13:17:33.063Z,7.88
2023-02-24T13:20:10.922Z,9.80
2023-02-24T13:22:41.984Z,9.38
2023-02-24T13:25:08.413Z,8.98
2023-02-24T13:27:37.312Z,7.45
2023-02-24T13:30:26.143Z,8.90
2023-02-24T13:33:00.344Z,10.90
2023-02-24T13:35:26.732Z,10.75
2023-02-24T13:37:54.182Z,10.82
2023-02-24T13:40:22.300Z,8.30
2023-02-24T13:43:01.050Z,8.65
2023-02-24T13:45:29.200Z,8.15
2023-02-24T13:48:26.007Z,8.07
2023-02-24T13:51:24.744Z,9.65
2023-02-24T13:54:12.993Z,8.82
2023-02-24T13:57:20.873Z,6.70
2023-02-24T14:00:12.034Z,9.07
2023-02-24T14:02:43.904Z,7.07
2023-02-24T14:05:19.443Z,7.78
2023-02-24T14:07:49.930Z,7.85
2023-02-24T14:10:20.356Z,7.47
2023-02-24T14:12:49.409Z,9.90
2023-02-24T14:15:20.537Z,6.82
2023-02-24T14:17:59.633Z,7.13
2023-02-24T14:20:28.095Z,6.90
2023-02-24T14:22:58.743Z,6.22
2023-02-24T14:25:29.613Z,7.32
2023-02-24T14:27:57.424Z,5.80
2023-02-24T14:30:38.004Z,9.77
2023-02-24T14:33:07.095Z,9.60
2023-02-24T14:35:41.951Z,8.05
2023-02-24T14:38:31.916Z,9.20
2023-02-24T14:40:58.463Z,7.47
2023-02-24T14:43:25.281Z,9.48
2023-02-24T14:45:53.150Z,10.48
2023-02-24T14:48:28.232Z,7.10
2023-02-24T14:51:05.280Z,9.90
2023-02-24T14:53:36.980Z,8.65
2023-02-24T14:56:06.194Z,10.60
2023-02-24T14:58:46.862Z,9.73
2023-02-24T15:01:21.280Z,9.73
2023-02-24T15:03:53.310Z,11.18
2023-02-24T15:06:26.662Z,11.65
2023-02-24T15:09:10.631Z,11.70
2023-02-24T15:11:37.235Z,10.68
2023-02-24T15:14:07.548Z,13.23
2023-02-24T15:16:40.640Z,11.35
2023-02-24T15:19:36.961Z,19.10
2023-02-24T15:22:24.551Z,10.68
2023-02-24T15:24:55.705Z,13.07
2023-02-24T15:27:25.928Z,10.88
2023-02-24T15:30:02.288Z,15.40
2023-02-24T15:32:31.805Z,16.08
2023-02-24T15:34:58.799Z,13.27
2023-02-24T15:37:37.478Z,14.18
2023-02-24T15:40:16.388Z,10.30
2023-02-24T15:42:56.352Z,10.85
2023-02-24T15:45:33.098Z,15.02
2023-02-24T15:48:03.571Z,15.13
2023-02-24T15:50:31.877Z,15.52
2023-02-24T15:53:00.465Z,15.02
2023-02-24T15:55:28.634Z,14.05
2023-02-24T15:58:01.473Z,12.23
2023-02-24T16:00:28.347Z,13.93
2023-02-24T16:02:54.870Z,14.35
2023-02-24T16:05:21.325Z,11.48
2023-02-24T16:07:48.979Z,14.57
2023-02-24T16:10:26.426Z,14.20
2023-02-24T16:12:59.666Z,12.15
2023-02-24T16:15:37.819Z,14.20
2023-02-24T16:18:06.572Z,13.98
2023-02-24T16:20:34.248Z,15.50
2023-02-24T16:23:03.422Z,15.38
2023-02-24T16:25:36.105Z,19.25
2023-02-24T16:28:02.551Z,17.23
2023-02-24T16:30:30.523Z,12.15
2023-02-24T16:32:58.299Z,11.02
2023-02-24T16:35:26.000Z,13.60
2023-02-24T16:37:52.643Z,13.32
2023-02-24T16:40:23.723Z,10.93
2023-02-24T16:42:53.726Z,16.25
2023-02-24T16:45:21.440Z,13.35
2023-02-24T16:47:49.753Z,12.82
2023-02-24T16:50:23.786Z,11.60
2023-02-24T16:55:17.975Z,16.98
2023-02-24T16:57:44.503Z,17.50
2023-02-24T17:00:13.207Z,20.27
2023-02-24T17:02:41.883Z,12.68
2023-02-24T17:05:16.401Z,16.52
2023-02-24T17:07:42.829Z,12.25
2023-02-24T17:10:09.713Z,11.57
2023-02-24T17:12:36.163Z,11.95
2023-02-24T17:15:02.857Z,11.23
2023-02-24T17:17:29.287Z,12.95
2023-02-24T17:19:55.729Z,12.98
2023-02-24T17:22:22.497Z,8.07
2023-02-24T17:24:49.017Z,11.13
2023-02-24T17:27:15.419Z,11.27
2023-02-24T17:29:41.848Z,11.90
2023-02-24T17:32:08.464Z,11.73
2023-02-24T17:34:35.386Z,9.52
2023-02-24T17:37:01.785Z,8.30
2023-02-24T17:39:28.544Z,8.93
2023-02-24T17:41:55.428Z,10.63
2023-02-24T17:44:22.344Z,7.65
2023-02-24T17:46:49.408Z,8.35
2023-02-24T17:49:15.841Z,9.70
2023-02-24T17:51:42.268Z,10.40
2023-02-24T17:54:08.917Z,9.60
2023-02-24T17:56:35.372Z,9.35
2023-02-24T17:59:11.868Z,12.93
2023-02-24T18:01:38.534Z,12.05
2023-02-24T18:04:04.906Z,12.07
2023-02-24T18:06:31.400Z,14.57
2023-02-24T18:08:57.828Z,14.07
2023-02-24T18:11:24.256Z,17.50
2023-02-24T18:13:50.877Z,18.92
2023-02-24T18:16:17.452Z,19.67
2023-02-24T18:18:44.015Z,20.73
2023-02-24T18:21:10.520Z,23.00
2023-02-24T18:23:40.150Z,24.13
2023-02-24T18:26:08.259Z,26.65
2023-02-24T18:28:34.747Z,20.27
2023-02-24T18:31:03.071Z,23.10
2023-02-24T18:33:29.837Z,24.75
2023-02-24T18:35:58.411Z,22.70
2023-02-24T18:38:25.102Z,23.45
2023-02-24T18:41:06.180Z,20.25
2023-02-24T18:43:35.550Z,22.00
2023-02-24T18:46:05.331Z,27.35
2023-02-24T18:48:32.977Z,24.90
2023-02-24T18:51:00.749Z,26.20
2023-02-24T18:53:30.089Z,28.20
2023-02-24T18:56:01.750Z,22.77
2023-02-24T18:58:29.917Z,25.52
2023-02-24T19:00:56.406Z,24.23
2023-02-24T19:03:23.179Z,20.45
2023-02-24T19:05:50.247Z,30.35
2023-02-24T19:08:17.049Z,30.33
2023-02-24T19:10:43.691Z,40.78
2023-02-24T19:13:11.471Z,29.88
2023-02-24T19:15:39.487Z,28.05
2023-02-24T19:18:06.656Z,25.17
2023-02-24T19:20:33.104Z,27.15
2023-02-24T19:22:59.637Z,24.80
2023-02-24T19:25:26.148Z,31.75
2023-02-24T19:27:53.642Z,36.47
2023-02-24T19:30:20.163Z,27.48
2023-02-24T19:32:46.953Z,34.28
2023-02-24T19:35:13.623Z,33.03
2023-02-24T19:37:40.110Z,26.10
2023-02-24T19:40:07.347Z,36.15
2023-02-24T19:42:33.858Z,28.48
2023-02-24T19:45:00.319Z,30.15
2023-02-24T19:47:26.769Z,33.83
2023-02-24T19:49:53.202Z,31.15
2023-02-24T19:52:19.627Z,30.15
2023-02-24T19:54:46.095Z,27.27
2023-02-24T19:57:12.549Z,28.42
2023-02-24T19:59:39.497Z,24.75
2023-02-24T20:02:06.073Z,28.70
2023-02-24T20:04:32.797Z,26.25
2023-02-24T20:06:59.332Z,24.67
2023-02-24T20:09:26.931Z,28.92
2023-02-24T20:11:54.648Z,35.42
2023-02-24T20:14:21.170Z,35.05
2023-02-24T20:16:47.981Z,31.48
2023-02-24T20:19:15.261Z,34.45
2023-02-24T20:21:42.153Z,30.50
2023-02-24T20:24:13.414Z,24.13
2023-02-24T20:26:42.044Z,30.95
2023-02-24T20:29:09.340Z,38.28
2023-02-24T20:31:36.152Z,31.73
2023-02-24T20:34:04.638Z,32.63
2023-02-24T20:36:31.073Z,32.65
2023-02-24T20:38:59.108Z,32.80
2023-02-24T20:41:27.016Z,36.60
2023-02-24T20:43:54.623Z,31.65
2023-02-24T20:46:30.107Z,28.48
2023-02-24T20:48:59.154Z,30.60
2023-02-24T20:51:27.079Z,31.48
2023-02-24T20:53:58.135Z,32.42
2023-02-24T20:56:29.589Z,20.55
2023-02-24T20:59:02.035Z,23.90
2023-02-24T21:01:29.759Z,39.03
2023-02-24T21:03:56.274Z,24.60
2023-02-24T21:06:23.409Z,26.15
2023-02-24T21:08:51.288Z,29.15
2023-02-24T21:11:17.704Z,23.70
2023-02-24T21:13:46.762Z,25.48
2023-02-24T21:16:15.616Z,27.38
2023-02-24T21:18:44.267Z,29.88
2023-02-24T21:21:11.328Z,30.02
2023-02-24T21:23:38.850Z,21.38
2023-02-24T21:26:06.670Z,30.95
2023-02-24T21:28:33.665Z,27.27
2023-02-24T21:31:00.532Z,28.95
2023-02-24T21:33:27.596Z,26.45
2023-02-24T21:36:03.684Z,25.35
2023-02-24T21:38:34.087Z,27.30
2023-02-24T21:41:05.676Z,27.88
2023-02-24T21:43:32.369Z,26.52
2023-02-24T21:46:05.357Z,32.08
2023-02-24T21:48:35.759Z,29.37
2023-02-24T21:51:05.471Z,22.40
2023-02-24T21:53:35.218Z,27.65
2023-02-24T21:56:16.214Z,22.33
2023-02-24T21:58:45.679Z,22.75
2023-02-24T22:01:20.635Z,22.52
2023-02-24T22:03:47.436Z,28.60
2023-02-24T22:06:16.574Z,29.55
2023-02-24T22:08:43.753Z,30.13
2023-02-24T22:11:11.811Z,28.08
2023-02-24T22:13:39.204Z,21.98
2023-02-24T22:16:07.735Z,29.23
2023-02-24T22:18:34.781Z,26.58
2023-02-24T22:21:08.565Z,20.77
2023-02-24T22:23:35.661Z,25.15
2023-02-24T22:26:04.590Z,18.35
2023-02-24T22:28:33.303Z,19.98
2023-02-24T22:31:02.367Z,22.50
2023-02-24T22:33:30.815Z,13.35
2023-02-24T22:36:02.469Z,16.80
2023-02-24T22:38:36.844Z,14.20
2023-02-24T22:41:07.529Z,15.27
2023-02-24T22:43:34.644Z,17.58
2023-02-24T22:46:04.179Z,12.25
2023-02-24T22:48:32.114Z,14.75
2023-02-24T22:51:00.995Z,13.90
2023-02-24T22:53:29.913Z,12.30
2023-02-24T22:55:56.940Z,9.77
2023-02-24T22:58:24.270Z,9.75
2023-02-24T23:00:53.449Z,10.50
2023-02-24T23:03:25.983Z,5.00
2023-02-24T23:06:07.196Z,6.95
2023-02-24T23:08:37.298Z,6.03
2023-02-24T23:11:06.996Z,6.32
2023-02-24T23:13:35.375Z,8.18
2023-02-24T23:16:03.400Z,5.28
2023-02-24T23:18:31.200Z,9.80
2023-02-24T23:21:03.196Z,8.27
2023-02-24T23:23:30.932Z,5.72
2023-02-24T23:25:57.477Z,7.00
2023-02-24T23:28:25.213Z,4.80
2023-02-24T23:30:53.349Z,4.93
2023-02-24T23:33:20.455Z,6.53
2023-02-24T23:35:47.087Z,3.75
2023-02-24T23:38:14.008Z,5.07
2023-02-24T23:40:51.127Z,4.65
2023-02-24T23:43:18.199Z,7.05
2023-02-24T23:45:45.008Z,6.30
2023-02-24T23:48:13.332Z,4.45
2023-02-24T23:50:41.415Z,4.47
2023-02-24T23:53:08.970Z,7.28
2023-02-24T23:55:38.217Z,7.68
2023-02-24T23:58:04.935Z,7.30
